sensor_id;sensor_type;location;lat;lon;timestamp;P1;durP1;ratioP1;P2;durP2;ratioP2
59972;SDS011;55298;-36.624;-64.282;2023-04-03T00:01:11;10.35;;;3.67;;
59972;SDS011;55298;-36.624;-64.282;2023-04-03T00:03:40;8.85;;;3.85;;
59972;SDS011;55298;-36.624;-64.282;2023-04-03T00:06:08;7.00;;;3.90;;
59972;SDS011;55298;-36.624;-64.282;2023-04-03T00:08:37;10.23;;;4.18;;
59972;SDS011;55298;-36.624;-64.282;2023-04-03T00:11:06;6.40;;;3.80;;
59972;SDS011;55298;-36.624;-64.282;2023-04-03T00:13:35;13.48;;;5.15;;
59972;SDS011;55298;-36.624;-64.282;2023-04-03T00:16:04;7.25;;;4.10;;
59972;SDS011;55298;-36.624;-64.282;2023-04-03T00:18:33;14.70;;;5.53;;
59972;SDS011;55298;-36.624;-64.282;2023-04-03T00:21:01;11.75;;;5.03;;
59972;SDS011;55298;-36.624;-64.282;2023-04-03T00:23:29;15.02;;;5.80;;
59972;SDS011;55298;-36.624;-64.282;2023-04-03T00:25:57;18.38;;;6.10;;
59972;SDS011;55298;-36.624;-64.282;2023-04-03T00:28:25;14.25;;;6.60;;
59972;SDS011;55298;-36.624;-64.282;2023-04-03T00:30:53;54.83;;;30.92;;
59972;SDS011;55298;-36.624;-64.282;2023-04-03T00:33:21;47.15;;;31.08;;
59972;SDS011;55298;-36.624;-64.282;2023-04-03T00:35:50;45.72;;;25.92;;
59972;SDS011;55298;-36.624;-64.282;2023-04-03T00:38:18;52.22;;;22.77;;
59972;SDS011;55298;-36.624;-64.282;2023-04-03T00:40:46;58.15;;;24.38;;
59972;SDS011;55298;-36.624;-64.282;2023-04-03T00:43:16;53.50;;;20.30;;
59972;SDS011;55298;-36.624;-64.282;2023-04-03T00:45:46;34.42;;;15.90;;
59972;SDS011;55298;-36.624;-64.282;2023-04-03T00:48:18;36.67;;;15.60;;
59972;SDS011;55298;-36.624;-64.282;2023-04-03T00:50:48;35.38;;;16.27;;
59972;SDS011;55298;-36.624;-64.282;2023-04-03T00:53:18;42.65;;;17.77;;
59972;SDS011;55298;-36.624;-64.282;2023-04-03T00:55:50;44.75;;;18.25;;
59972;SDS011;55298;-36.624;-64.282;2023-04-03T00:58:26;27.58;;;15.45;;
59972;SDS011;55298;-36.624;-64.282;2023-04-03T01:01:06;30.15;;;13.68;;
59972;SDS011;55298;-36.624;-64.282;2023-04-03T01:03:38;19.90;;;8.80;;
59972;SDS011;55298;-36.624;-64.282;2023-04-03T01:06:06;21.05;;;8.10;;
59972;SDS011;55298;-36.624;-64.282;2023-04-03T01:08:34;13.65;;;6.25;;
59972;SDS011;55298;-36.624;-64.282;2023-04-03T01:11:02;12.95;;;6.25;;
59972;SDS011;55298;-36.624;-64.282;2023-04-03T01:13:31;16.75;;;9.68;;
59972;SDS011;55298;-36.624;-64.282;2023-04-03T01:16:01;16.88;;;8.50;;
59972;SDS011;55298;-36.624;-64.282;2023-04-03T01:18:31;21.95;;;8.50;;
59972;SDS011;55298;-36.624;-64.282;2023-04-03T01:24:02;10.18;;;3.90;;
59972;SDS011;55298;-36.624;-64.282;2023-04-03T01:26:51;7.80;;;3.75;;
59972;SDS011;55298;-36.624;-64.282;2023-04-03T01:29:19;11.82;;;3.17;;
59972;SDS011;55298;-36.624;-64.282;2023-04-03T01:31:53;4.85;;;2.50;;
59972;SDS011;55298;-36.624;-64.282;2023-04-03T01:34:25;5.20;;;2.75;;
59972;SDS011;55298;-36.624;-64.282;2023-04-03T01:36:54;11.10;;;3.72;;
59972;SDS011;55298;-36.624;-64.282;2023-04-03T01:39:22;6.80;;;2.85;;
59972;SDS011;55298;-36.624;-64.282;2023-04-03T01:41:50;7.60;;;3.10;;
59972;SDS011;55298;-36.624;-64.282;2023-04-03T01:44:18;8.73;;;2.70;;
59972;SDS011;55298;-36.624;-64.282;2023-04-03T01:46:47;9.25;;;2.85;;
59972;SDS011;55298;-36.624;-64.282;2023-04-03T01:49:15;8.90;;;2.67;;
59972;SDS011;55298;-36.624;-64.282;2023-04-03T01:51:45;2.95;;;2.30;;
59972;SDS011;55298;-36.624;-64.282;2023-04-03T01:54:13;7.07;;;2.55;;
59972;SDS011;55298;-36.624;-64.282;2023-04-03T01:56:41;11.73;;;2.92;;
59972;SDS011;55298;-36.624;-64.282;2023-04-03T01:59:09;8.13;;;2.65;;
59972;SDS011;55298;-36.624;-64.282;2023-04-03T02:01:37;8.75;;;2.90;;
59972;SDS011;55298;-36.624;-64.282;2023-04-03T02:04:05;5.65;;;2.63;;
59972;SDS011;55298;-36.624;-64.282;2023-04-03T02:06:37;5.05;;;2.78;;
59972;SDS011;55298;-36.624;-64.282;2023-04-03T02:09:05;6.45;;;2.65;;
59972;SDS011;55298;-36.624;-64.282;2023-04-03T02:11:33;8.55;;;2.63;;
59972;SDS011;55298;-36.624;-64.282;2023-04-03T02:14:00;9.88;;;3.90;;
59972;SDS011;55298;-36.624;-64.282;2023-04-03T02:16:28;7.72;;;2.80;;
59972;SDS011;55298;-36.624;-64.282;2023-04-03T02:18:56;4.72;;;2.30;;
59972;SDS011;55298;-36.624;-64.282;2023-04-03T02:21:24;8.07;;;2.63;;
59972;SDS011;55298;-36.624;-64.282;2023-04-03T02:23:53;6.47;;;2.78;;
59972;SDS011;55298;-36.624;-64.282;2023-04-03T02:26:23;6.65;;;2.30;;
59972;SDS011;55298;-36.624;-64.282;2023-04-03T02:28:52;5.22;;;2.67;;
59972;SDS011;55298;-36.624;-64.282;2023-04-03T02:31:20;4.80;;;2.70;;
59972;SDS011;55298;-36.624;-64.282;2023-04-03T02:33:49;6.03;;;2.55;;
59972;SDS011;55298;-36.624;-64.282;2023-04-03T02:36:17;10.15;;;2.70;;
59972;SDS011;55298;-36.624;-64.282;2023-04-03T02:38:45;8.05;;;2.50;;
59972;SDS011;55298;-36.624;-64.282;2023-04-03T02:41:13;7.22;;;2.45;;
59972;SDS011;55298;-36.624;-64.282;2023-04-03T02:43:41;7.57;;;2.50;;
59972;SDS011;55298;-36.624;-64.282;2023-04-03T02:46:09;5.30;;;2.33;;
59972;SDS011;55298;-36.624;-64.282;2023-04-03T02:48:37;5.25;;;2.20;;
59972;SDS011;55298;-36.624;-64.282;2023-04-03T02:51:05;4.28;;;2.50;;
59972;SDS011;55298;-36.624;-64.282;2023-04-03T02:53:32;4.60;;;2.42;;
59972;SDS011;55298;-36.624;-64.282;2023-04-03T02:56:00;6.55;;;2.45;;
59972;SDS011;55298;-36.624;-64.282;2023-04-03T02:58:28;6.13;;;2.35;;
59972;SDS011;55298;-36.624;-64.282;2023-04-03T03:00:56;3.88;;;2.22;;
59972;SDS011;55298;-36.624;-64.282;2023-04-03T03:03:24;4.22;;;2.40;;
59972;SDS011;55298;-36.624;-64.282;2023-04-03T03:06:05;5.38;;;2.25;;
59972;SDS011;55298;-36.624;-64.282;2023-04-03T03:08:36;5.05;;;2.30;;
59972;SDS011;55298;-36.624;-64.282;2023-04-03T03:11:04;4.63;;;2.50;;
59972;SDS011;55298;-36.624;-64.282;2023-04-03T03:13:32;4.53;;;2.40;;
59972;SDS011;55298;-36.624;-64.282;2023-04-03T03:16:00;5.28;;;2.03;;
59972;SDS011;55298;-36.624;-64.282;2023-04-03T03:18:30;6.97;;;2.50;;
59972;SDS011;55298;-36.624;-64.282;2023-04-03T03:20:59;6.85;;;2.80;;
59972;SDS011;55298;-36.624;-64.282;2023-04-03T03:23:29;6.38;;;2.25;;
59972;SDS011;55298;-36.624;-64.282;2023-04-03T03:25:58;6.63;;;2.40;;
59972;SDS011;55298;-36.624;-64.282;2023-04-03T03:28:29;4.07;;;2.58;;
59972;SDS011;55298;-36.624;-64.282;2023-04-03T03:30:58;4.82;;;2.40;;
59972;SDS011;55298;-36.624;-64.282;2023-04-03T03:33:26;4.70;;;2.70;;
59972;SDS011;55298;-36.624;-64.282;2023-04-03T03:35:54;5.18;;;2.70;;
59972;SDS011;55298;-36.624;-64.282;2023-04-03T03:38:22;9.18;;;2.38;;
59972;SDS011;55298;-36.624;-64.282;2023-04-03T03:40:50;2.85;;;2.10;;
59972;SDS011;55298;-36.624;-64.282;2023-04-03T03:43:18;5.53;;;2.25;;
59972;SDS011;55298;-36.624;-64.282;2023-04-03T03:45:49;3.92;;;2.22;;
59972;SDS011;55298;-36.624;-64.282;2023-04-03T03:48:18;5.57;;;2.30;;
59972;SDS011;55298;-36.624;-64.282;2023-04-03T03:50:47;4.03;;;2.38;;
59972;SDS011;55298;-36.624;-64.282;2023-04-03T03:53:15;7.10;;;2.78;;
59972;SDS011;55298;-36.624;-64.282;2023-04-03T03:55:45;5.93;;;2.50;;
59972;SDS011;55298;-36.624;-64.282;2023-04-03T03:58:13;9.13;;;3.00;;
59972;SDS011;55298;-36.624;-64.282;2023-04-03T04:00:40;3.65;;;2.42;;
59972;SDS011;55298;-36.624;-64.282;2023-04-03T04:03:08;6.07;;;2.40;;
59972;SDS011;55298;-36.624;-64.282;2023-04-03T04:05:36;7.03;;;2.53;;
59972;SDS011;55298;-36.624;-64.282;2023-04-03T04:08:05;4.45;;;2.38;;
59972;SDS011;55298;-36.624;-64.282;2023-04-03T04:10:33;4.90;;;2.35;;
59972;SDS011;55298;-36.624;-64.282;2023-04-03T04:13:02;6.75;;;3.13;;
59972;SDS011;55298;-36.624;-64.282;2023-04-03T04:15:29;8.38;;;2.50;;
59972;SDS011;55298;-36.624;-64.282;2023-04-03T04:17:57;4.30;;;2.67;;
59972;SDS011;55298;-36.624;-64.282;2023-04-03T04:20:25;4.82;;;2.33;;
59972;SDS011;55298;-36.624;-64.282;2023-04-03T04:22:53;5.15;;;2.72;;
59972;SDS011;55298;-36.624;-64.282;2023-04-03T04:25:21;5.00;;;2.65;;
59972;SDS011;55298;-36.624;-64.282;2023-04-03T04:27:50;3.65;;;2.60;;
59972;SDS011;55298;-36.624;-64.282;2023-04-03T04:30:17;5.63;;;2.40;;
59972;SDS011;55298;-36.624;-64.282;2023-04-03T04:32:45;4.63;;;2.40;;
59972;SDS011;55298;-36.624;-64.282;2023-04-03T04:35:13;4.97;;;2.20;;
59972;SDS011;55298;-36.624;-64.282;2023-04-03T04:37:41;5.55;;;2.10;;
59972;SDS011;55298;-36.624;-64.282;2023-04-03T04:40:09;7.38;;;2.60;;
59972;SDS011;55298;-36.624;-64.282;2023-04-03T04:42:37;5.45;;;2.10;;
59972;SDS011;55298;-36.624;-64.282;2023-04-03T04:45:05;3.42;;;2.28;;
59972;SDS011;55298;-36.624;-64.282;2023-04-03T04:47:33;5.05;;;2.40;;
59972;SDS011;55298;-36.624;-64.282;2023-04-03T04:50:01;2.97;;;2.17;;
59972;SDS011;55298;-36.624;-64.282;2023-04-03T04:52:29;5.10;;;2.58;;
59972;SDS011;55298;-36.624;-64.282;2023-04-03T04:54:56;4.18;;;2.72;;
59972;SDS011;55298;-36.624;-64.282;2023-04-03T04:57:25;4.82;;;2.53;;
59972;SDS011;55298;-36.624;-64.282;2023-04-03T04:59:53;3.45;;;2.30;;
59972;SDS011;55298;-36.624;-64.282;2023-04-03T05:02:21;5.00;;;2.15;;
59972;SDS011;55298;-36.624;-64.282;2023-04-03T05:04:48;5.55;;;3.10;;
59972;SDS011;55298;-36.624;-64.282;2023-04-03T05:07:17;3.92;;;2.40;;
59972;SDS011;55298;-36.624;-64.282;2023-04-03T05:09:45;4.50;;;2.45;;
59972;SDS011;55298;-36.624;-64.282;2023-04-03T05:12:13;4.15;;;2.20;;
59972;SDS011;55298;-36.624;-64.282;2023-04-03T05:14:40;4.35;;;2.20;;
59972;SDS011;55298;-36.624;-64.282;2023-04-03T05:17:08;5.72;;;2.60;;
59972;SDS011;55298;-36.624;-64.282;2023-04-03T05:19:36;6.15;;;2.47;;
59972;SDS011;55298;-36.624;-64.282;2023-04-03T05:22:04;6.30;;;2.67;;
59972;SDS011;55298;-36.624;-64.282;2023-04-03T05:24:32;5.97;;;2.50;;
59972;SDS011;55298;-36.624;-64.282;2023-04-03T05:26:59;5.15;;;2.33;;
59972;SDS011;55298;-36.624;-64.282;2023-04-03T05:29:27;4.97;;;2.40;;
59972;SDS011;55298;-36.624;-64.282;2023-04-03T05:31:55;4.97;;;2.50;;
59972;SDS011;55298;-36.624;-64.282;2023-04-03T05:34:23;5.03;;;2.78;;
59972;SDS011;55298;-36.624;-64.282;2023-04-03T05:36:51;5.70;;;2.63;;
59972;SDS011;55298;-36.624;-64.282;2023-04-03T05:39:18;5.97;;;2.80;;
59972;SDS011;55298;-36.624;-64.282;2023-04-03T05:41:48;5.10;;;2.63;;
59972;SDS011;55298;-36.624;-64.282;2023-04-03T05:44:15;5.38;;;2.65;;
59972;SDS011;55298;-36.624;-64.282;2023-04-03T05:46:43;6.28;;;2.75;;
59972;SDS011;55298;-36.624;-64.282;2023-04-03T05:49:11;3.30;;;2.60;;
59972;SDS011;55298;-36.624;-64.282;2023-04-03T05:51:39;8.88;;;2.80;;
59972;SDS011;55298;-36.624;-64.282;2023-04-03T05:54:11;8.27;;;2.75;;
59972;SDS011;55298;-36.624;-64.282;2023-04-03T05:56:44;3.28;;;2.33;;
59972;SDS011;55298;-36.624;-64.282;2023-04-03T05:59:11;4.72;;;3.08;;
59972;SDS011;55298;-36.624;-64.282;2023-04-03T06:01:40;7.03;;;3.05;;
59972;SDS011;55298;-36.624;-64.282;2023-04-03T06:04:07;6.18;;;3.05;;
59972;SDS011;55298;-36.624;-64.282;2023-04-03T06:06:55;3.80;;;2.70;;
59972;SDS011;55298;-36.624;-64.282;2023-04-03T06:09:24;4.28;;;2.83;;
59972;SDS011;55298;-36.624;-64.282;2023-04-03T06:11:54;3.22;;;2.80;;
59972;SDS011;55298;-36.624;-64.282;2023-04-03T06:14:24;7.72;;;3.15;;
59972;SDS011;55298;-36.624;-64.282;2023-04-03T06:16:52;4.53;;;2.70;;
59972;SDS011;55298;-36.624;-64.282;2023-04-03T06:19:21;6.55;;;2.58;;
59972;SDS011;55298;-36.624;-64.282;2023-04-03T06:21:49;4.35;;;2.70;;
59972;SDS011;55298;-36.624;-64.282;2023-04-03T06:24:17;7.60;;;3.25;;
59972;SDS011;55298;-36.624;-64.282;2023-04-03T06:26:47;3.60;;;2.60;;
59972;SDS011;55298;-36.624;-64.282;2023-04-03T06:29:17;7.90;;;2.92;;
59972;SDS011;55298;-36.624;-64.282;2023-04-03T06:31:45;7.25;;;3.03;;
59972;SDS011;55298;-36.624;-64.282;2023-04-03T06:34:14;6.13;;;3.28;;
59972;SDS011;55298;-36.624;-64.282;2023-04-03T06:36:42;8.57;;;3.85;;
59972;SDS011;55298;-36.624;-64.282;2023-04-03T06:39:15;8.10;;;3.17;;
59972;SDS011;55298;-36.624;-64.282;2023-04-03T06:41:46;5.38;;;3.40;;
59972;SDS011;55298;-36.624;-64.282;2023-04-03T06:44:14;4.22;;;2.80;;
59972;SDS011;55298;-36.624;-64.282;2023-04-03T06:46:42;5.38;;;2.70;;
59972;SDS011;55298;-36.624;-64.282;2023-04-03T06:49:12;6.75;;;3.35;;
59972;SDS011;55298;-36.624;-64.282;2023-04-03T06:51:40;7.00;;;2.95;;
59972;SDS011;55298;-36.624;-64.282;2023-04-03T06:54:08;6.18;;;2.85;;
59972;SDS011;55298;-36.624;-64.282;2023-04-03T06:56:36;3.90;;;2.88;;
59972;SDS011;55298;-36.624;-64.282;2023-04-03T06:59:04;5.90;;;2.78;;
59972;SDS011;55298;-36.624;-64.282;2023-04-03T07:01:31;4.95;;;2.95;;
59972;SDS011;55298;-36.624;-64.282;2023-04-03T07:03:59;7.40;;;3.25;;
59972;SDS011;55298;-36.624;-64.282;2023-04-03T07:06:27;6.13;;;3.53;;
59972;SDS011;55298;-36.624;-64.282;2023-04-03T07:08:56;3.10;;;2.60;;
59972;SDS011;55298;-36.624;-64.282;2023-04-03T07:11:24;5.50;;;3.15;;
59972;SDS011;55298;-36.624;-64.282;2023-04-03T07:13:52;6.97;;;3.08;;
59972;SDS011;55298;-36.624;-64.282;2023-04-03T07:16:20;6.80;;;3.03;;
59972;SDS011;55298;-36.624;-64.282;2023-04-03T07:18:48;5.53;;;3.17;;
59972;SDS011;55298;-36.624;-64.282;2023-04-03T07:21:16;4.90;;;2.67;;
59972;SDS011;55298;-36.624;-64.282;2023-04-03T07:23:44;5.15;;;2.90;;
59972;SDS011;55298;-36.624;-64.282;2023-04-03T07:26:12;7.47;;;3.00;;
59972;SDS011;55298;-36.624;-64.282;2023-04-03T07:28:40;4.13;;;2.60;;
59972;SDS011;55298;-36.624;-64.282;2023-04-03T07:31:11;4.32;;;2.70;;
59972;SDS011;55298;-36.624;-64.282;2023-04-03T07:33:39;4.88;;;2.90;;
59972;SDS011;55298;-36.624;-64.282;2023-04-03T07:36:08;2.78;;;2.58;;
59972;SDS011;55298;-36.624;-64.282;2023-04-03T07:38:36;4.63;;;2.60;;
59972;SDS011;55298;-36.624;-64.282;2023-04-03T07:41:04;5.72;;;2.80;;
59972;SDS011;55298;-36.624;-64.282;2023-04-03T07:43:32;4.78;;;3.05;;
59972;SDS011;55298;-36.624;-64.282;2023-04-03T07:46:00;4.53;;;2.80;;
59972;SDS011;55298;-36.624;-64.282;2023-04-03T07:48:31;4.65;;;3.00;;
59972;SDS011;55298;-36.624;-64.282;2023-04-03T07:51:01;5.32;;;2.88;;
59972;SDS011;55298;-36.624;-64.282;2023-04-03T07:53:30;4.60;;;2.80;;
59972;SDS011;55298;-36.624;-64.282;2023-04-03T07:55:58;6.80;;;2.95;;
59972;SDS011;55298;-36.624;-64.282;2023-04-03T07:58:28;4.75;;;2.60;;
59972;SDS011;55298;-36.624;-64.282;2023-04-03T08:00:56;4.72;;;2.70;;
59972;SDS011;55298;-36.624;-64.282;2023-04-03T08:03:25;3.88;;;2.63;;
59972;SDS011;55298;-36.624;-64.282;2023-04-03T08:05:53;3.22;;;2.50;;
59972;SDS011;55298;-36.624;-64.282;2023-04-03T08:08:27;6.50;;;2.90;;
59972;SDS011;55298;-36.624;-64.282;2023-04-03T08:10:57;4.10;;;2.90;;
59972;SDS011;55298;-36.624;-64.282;2023-04-03T08:13:26;6.72;;;3.13;;
59972;SDS011;55298;-36.624;-64.282;2023-04-03T08:15:54;3.92;;;2.75;;
59972;SDS011;55298;-36.624;-64.282;2023-04-03T08:18:23;5.25;;;3.40;;
59972;SDS011;55298;-36.624;-64.282;2023-04-03T08:20:52;6.05;;;3.05;;
59972;SDS011;55298;-36.624;-64.282;2023-04-03T08:23:19;3.95;;;2.88;;
59972;SDS011;55298;-36.624;-64.282;2023-04-03T08:25:47;6.88;;;2.92;;
59972;SDS011;55298;-36.624;-64.282;2023-04-03T08:28:16;4.28;;;2.53;;
59972;SDS011;55298;-36.624;-64.282;2023-04-03T08:30:44;4.97;;;3.15;;
59972;SDS011;55298;-36.624;-64.282;2023-04-03T08:33:12;6.82;;;3.30;;
59972;SDS011;55298;-36.624;-64.282;2023-04-03T08:35:40;7.10;;;3.78;;
59972;SDS011;55298;-36.624;-64.282;2023-04-03T08:38:09;4.95;;;3.53;;
59972;SDS011;55298;-36.624;-64.282;2023-04-03T08:40:37;6.47;;;3.13;;
59972;SDS011;55298;-36.624;-64.282;2023-04-03T08:43:19;5.75;;;2.80;;
59972;SDS011;55298;-36.624;-64.282;2023-04-03T08:46:01;4.28;;;2.85;;
59972;SDS011;55298;-36.624;-64.282;2023-04-03T08:51:12;5.65;;;4.35;;
59972;SDS011;55298;-36.624;-64.282;2023-04-03T08:53:46;9.68;;;3.38;;
59972;SDS011;55298;-36.624;-64.282;2023-04-03T08:56:28;6.40;;;3.40;;
59972;SDS011;55298;-36.624;-64.282;2023-04-03T08:58:58;6.80;;;3.80;;
59972;SDS011;55298;-36.624;-64.282;2023-04-03T09:01:39;5.60;;;3.22;;
59972;SDS011;55298;-36.624;-64.282;2023-04-03T09:04:15;5.72;;;2.72;;
59972;SDS011;55298;-36.624;-64.282;2023-04-03T09:06:46;6.40;;;3.22;;
59972;SDS011;55298;-36.624;-64.282;2023-04-03T09:09:25;4.43;;;3.20;;
59972;SDS011;55298;-36.624;-64.282;2023-04-03T09:14:57;7.90;;;3.45;;
59972;SDS011;55298;-36.624;-64.282;2023-04-03T09:17:53;6.40;;;3.40;;
59972;SDS011;55298;-36.624;-64.282;2023-04-03T09:23:21;5.88;;;3.35;;
59972;SDS011;55298;-36.624;-64.282;2023-04-03T09:26:02;12.40;;;4.10;;
59972;SDS011;55298;-36.624;-64.282;2023-04-03T09:28:35;7.15;;;2.85;;
59972;SDS011;55298;-36.624;-64.282;2023-04-03T09:31:57;5.88;;;3.65;;
59972;SDS011;55298;-36.624;-64.282;2023-04-03T09:34:04;5.70;;;3.30;;
59972;SDS011;55298;-36.624;-64.282;2023-04-03T09:36:39;8.18;;;3.28;;
59972;SDS011;55298;-36.624;-64.282;2023-04-03T09:39:18;5.38;;;3.50;;
59972;SDS011;55298;-36.624;-64.282;2023-04-03T09:44:33;5.80;;;3.25;;
59972;SDS011;55298;-36.624;-64.282;2023-04-03T09:49:49;7.22;;;3.55;;
59972;SDS011;55298;-36.624;-64.282;2023-04-03T09:52:22;6.57;;;3.38;;
59972;SDS011;55298;-36.624;-64.282;2023-04-03T09:54:52;10.32;;;4.85;;
59972;SDS011;55298;-36.624;-64.282;2023-04-03T09:57:20;7.50;;;5.05;;
59972;SDS011;55298;-36.624;-64.282;2023-04-03T10:00:01;5.28;;;3.72;;
59972;SDS011;55298;-36.624;-64.282;2023-04-03T10:02:38;5.72;;;3.70;;
59972;SDS011;55298;-36.624;-64.282;2023-04-03T10:10:42;6.35;;;3.30;;
59972;SDS011;55298;-36.624;-64.282;2023-04-03T10:13:17;11.00;;;3.70;;
59972;SDS011;55298;-36.624;-64.282;2023-04-03T10:15:49;8.45;;;3.65;;
59972;SDS011;55298;-36.624;-64.282;2023-04-03T10:21:13;11.70;;;5.70;;
59972;SDS011;55298;-36.624;-64.282;2023-04-03T10:24:05;8.65;;;3.83;;
59972;SDS011;55298;-36.624;-64.282;2023-04-03T10:29:36;6.78;;;4.22;;
59972;SDS011;55298;-36.624;-64.282;2023-04-03T10:32:21;9.52;;;3.58;;
59972;SDS011;55298;-36.624;-64.282;2023-04-03T10:35:31;15.10;;;9.10;;
59972;SDS011;55298;-36.624;-64.282;2023-04-03T10:41:08;10.00;;;5.13;;
59972;SDS011;55298;-36.624;-64.282;2023-04-03T10:43:54;4.50;;;4.10;;
59972;SDS011;55298;-36.624;-64.282;2023-04-03T10:49:25;10.18;;;5.32;;
59972;SDS011;55298;-36.624;-64.282;2023-04-03T10:58:18;11.35;;;6.68;;
59972;SDS011;55298;-36.624;-64.282;2023-04-03T11:00:53;9.30;;;4.75;;
59972;SDS011;55298;-36.624;-64.282;2023-04-03T11:05:57;16.92;;;5.65;;
59972;SDS011;55298;-36.624;-64.282;2023-04-03T11:08:44;17.60;;;6.10;;
59972;SDS011;55298;-36.624;-64.282;2023-04-03T11:11:24;13.13;;;5.30;;
59972;SDS011;55298;-36.624;-64.282;2023-04-03T11:14:13;14.90;;;5.40;;
59972;SDS011;55298;-36.624;-64.282;2023-04-03T11:16:55;8.50;;;3.42;;
59972;SDS011;55298;-36.624;-64.282;2023-04-03T11:19:39;11.43;;;4.30;;
59972;SDS011;55298;-36.624;-64.282;2023-04-03T11:22:32;4.25;;;3.17;;
59972;SDS011;55298;-36.624;-64.282;2023-04-03T11:25:18;5.05;;;2.97;;
59972;SDS011;55298;-36.624;-64.282;2023-04-03T11:30:37;11.50;;;7.07;;
59972;SDS011;55298;-36.624;-64.282;2023-04-03T11:36:19;10.68;;;4.03;;
59972;SDS011;55298;-36.624;-64.282;2023-04-03T11:38:53;15.95;;;5.05;;
59972;SDS011;55298;-36.624;-64.282;2023-04-03T11:41:26;9.40;;;4.00;;
59972;SDS011;55298;-36.624;-64.282;2023-04-03T11:44:00;9.27;;;3.45;;
59972;SDS011;55298;-36.624;-64.282;2023-04-03T11:52:08;14.02;;;4.05;;
59972;SDS011;55298;-36.624;-64.282;2023-04-03T11:54:44;11.65;;;4.93;;
59972;SDS011;55298;-36.624;-64.282;2023-04-03T12:09:22;17.77;;;4.45;;
59972;SDS011;55298;-36.624;-64.282;2023-04-03T12:12:27;20.73;;;5.90;;
59972;SDS011;55298;-36.624;-64.282;2023-04-03T12:14:55;12.13;;;4.15;;
59972;SDS011;55298;-36.624;-64.282;2023-04-03T12:17:46;11.68;;;5.88;;
59972;SDS011;55298;-36.624;-64.282;2023-04-03T12:23:08;12.63;;;4.72;;
59972;SDS011;55298;-36.624;-64.282;2023-04-03T12:26:01;10.05;;;3.72;;
59972;SDS011;55298;-36.624;-64.282;2023-04-03T12:28:45;10.20;;;3.78;;
59972;SDS011;55298;-36.624;-64.282;2023-04-03T12:31:14;8.77;;;3.28;;
59972;SDS011;55298;-36.624;-64.282;2023-04-03T12:33:58;4.63;;;2.67;;
59972;SDS011;55298;-36.624;-64.282;2023-04-03T12:36:46;10.40;;;3.00;;
59972;SDS011;55298;-36.624;-64.282;2023-04-03T12:48:22;6.90;;;3.60;;
59972;SDS011;55298;-36.624;-64.282;2023-04-03T12:50:56;7.93;;;2.85;;
59972;SDS011;55298;-36.624;-64.282;2023-04-03T12:53:27;6.80;;;3.05;;
59972;SDS011;55298;-36.624;-64.282;2023-04-03T12:58:47;5.45;;;2.90;;
59972;SDS011;55298;-36.624;-64.282;2023-04-03T13:01:19;7.60;;;3.00;;
59972;SDS011;55298;-36.624;-64.282;2023-04-03T13:03:51;5.07;;;2.72;;
59972;SDS011;55298;-36.624;-64.282;2023-04-03T13:06:23;7.03;;;2.85;;
59972;SDS011;55298;-36.624;-64.282;2023-04-03T13:08:55;8.55;;;3.53;;
59972;SDS011;55298;-36.624;-64.282;2023-04-03T13:11:30;7.43;;;3.17;;
59972;SDS011;55298;-36.624;-64.282;2023-04-03T13:14:20;5.93;;;3.08;;
59972;SDS011;55298;-36.624;-64.282;2023-04-03T13:16:55;9.35;;;3.55;;
59972;SDS011;55298;-36.624;-64.282;2023-04-03T13:19:31;10.57;;;3.47;;
59972;SDS011;55298;-36.624;-64.282;2023-04-03T13:22:02;8.25;;;3.13;;
59972;SDS011;55298;-36.624;-64.282;2023-04-03T13:24:41;9.63;;;3.20;;
59972;SDS011;55298;-36.624;-64.282;2023-04-03T13:27:12;7.03;;;3.20;;
59972;SDS011;55298;-36.624;-64.282;2023-04-03T13:29:43;9.88;;;3.00;;
59972;SDS011;55298;-36.624;-64.282;2023-04-03T13:32:20;8.43;;;3.70;;
59972;SDS011;55298;-36.624;-64.282;2023-04-03T13:35:24;9.77;;;3.60;;
59972;SDS011;55298;-36.624;-64.282;2023-04-03T13:37:54;18.75;;;5.25;;
59972;SDS011;55298;-36.624;-64.282;2023-04-03T13:40:24;10.27;;;3.78;;
59972;SDS011;55298;-36.624;-64.282;2023-04-03T13:43:00;8.70;;;3.05;;
59972;SDS011;55298;-36.624;-64.282;2023-04-03T13:48:39;6.65;;;3.15;;
59972;SDS011;55298;-36.624;-64.282;2023-04-03T13:51:17;6.25;;;2.83;;
59972;SDS011;55298;-36.624;-64.282;2023-04-03T13:56:21;10.95;;;3.30;;
59972;SDS011;55298;-36.624;-64.282;2023-04-03T13:58:58;7.95;;;3.08;;
59972;SDS011;55298;-36.624;-64.282;2023-04-03T14:01:36;8.35;;;2.72;;
59972;SDS011;55298;-36.624;-64.282;2023-04-03T14:04:18;9.25;;;3.13;;
59972;SDS011;55298;-36.624;-64.282;2023-04-03T14:06:49;7.93;;;2.90;;
59972;SDS011;55298;-36.624;-64.282;2023-04-03T14:09:19;10.63;;;3.50;;
59972;SDS011;55298;-36.624;-64.282;2023-04-03T14:11:49;15.05;;;4.95;;
59972;SDS011;55298;-36.624;-64.282;2023-04-03T14:14:21;7.63;;;3.60;;
59972;SDS011;55298;-36.624;-64.282;2023-04-03T14:16:57;16.73;;;4.03;;
59972;SDS011;55298;-36.624;-64.282;2023-04-03T14:19:30;10.50;;;3.75;;
59972;SDS011;55298;-36.624;-64.282;2023-04-03T14:24:44;7.15;;;2.38;;
59972;SDS011;55298;-36.624;-64.282;2023-04-03T14:27:15;8.35;;;3.30;;
59972;SDS011;55298;-36.624;-64.282;2023-04-03T14:29:47;6.38;;;2.38;;
59972;SDS011;55298;-36.624;-64.282;2023-04-03T14:32:19;8.70;;;3.03;;
59972;SDS011;55298;-36.624;-64.282;2023-04-03T14:34:49;7.45;;;2.72;;
59972;SDS011;55298;-36.624;-64.282;2023-04-03T14:37:19;10.02;;;2.75;;
59972;SDS011;55298;-36.624;-64.282;2023-04-03T14:39:52;6.50;;;2.38;;
59972;SDS011;55298;-36.624;-64.282;2023-04-03T14:44:51;7.80;;;3.28;;
59972;SDS011;55298;-36.624;-64.282;2023-04-03T14:47:20;8.75;;;4.20;;
59972;SDS011;55298;-36.624;-64.282;2023-04-03T14:49:52;5.43;;;2.17;;
59972;SDS011;55298;-36.624;-64.282;2023-04-03T14:52:22;8.02;;;3.20;;
59972;SDS011;55298;-36.624;-64.282;2023-04-03T14:54:54;5.30;;;2.33;;
59972;SDS011;55298;-36.624;-64.282;2023-04-03T14:57:23;4.82;;;2.08;;
59972;SDS011;55298;-36.624;-64.282;2023-04-03T14:59:53;7.38;;;4.53;;
59972;SDS011;55298;-36.624;-64.282;2023-04-03T15:02:24;7.55;;;2.47;;
59972;SDS011;55298;-36.624;-64.282;2023-04-03T15:04:57;5.55;;;2.28;;
59972;SDS011;55298;-36.624;-64.282;2023-04-03T15:07:30;5.15;;;2.33;;
59972;SDS011;55298;-36.624;-64.282;2023-04-03T15:10:05;10.38;;;2.47;;
59972;SDS011;55298;-36.624;-64.282;2023-04-03T15:12:44;7.07;;;2.88;;
59972;SDS011;55298;-36.624;-64.282;2023-04-03T15:15:14;6.82;;;3.83;;
59972;SDS011;55298;-36.624;-64.282;2023-04-03T15:17:43;7.95;;;3.00;;
59972;SDS011;55298;-36.624;-64.282;2023-04-03T15:20:16;8.93;;;2.67;;
59972;SDS011;55298;-36.624;-64.282;2023-04-03T15:22:46;3.45;;;1.50;;
59972;SDS011;55298;-36.624;-64.282;2023-04-03T15:25:15;5.28;;;2.40;;
59972;SDS011;55298;-36.624;-64.282;2023-04-03T15:27:43;6.38;;;1.80;;
59972;SDS011;55298;-36.624;-64.282;2023-04-03T15:30:13;5.00;;;2.10;;
59972;SDS011;55298;-36.624;-64.282;2023-04-03T15:32:47;4.28;;;1.83;;
59972;SDS011;55298;-36.624;-64.282;2023-04-03T15:35:17;4.57;;;1.83;;
59972;SDS011;55298;-36.624;-64.282;2023-04-03T15:37:49;4.30;;;2.00;;
59972;SDS011;55298;-36.624;-64.282;2023-04-03T15:40:23;3.70;;;1.67;;
59972;SDS011;55298;-36.624;-64.282;2023-04-03T15:42:53;3.83;;;1.45;;
59972;SDS011;55298;-36.624;-64.282;2023-04-03T15:45:21;6.38;;;2.08;;
59972;SDS011;55298;-36.624;-64.282;2023-04-03T15:47:49;3.35;;;1.65;;
59972;SDS011;55298;-36.624;-64.282;2023-04-03T15:50:17;3.53;;;1.77;;
59972;SDS011;55298;-36.624;-64.282;2023-04-03T15:52:48;6.20;;;1.60;;
59972;SDS011;55298;-36.624;-64.282;2023-04-03T15:55:21;9.25;;;4.43;;
59972;SDS011;55298;-36.624;-64.282;2023-04-03T15:57:50;8.63;;;4.20;;
59972;SDS011;55298;-36.624;-64.282;2023-04-03T16:00:20;6.72;;;2.60;;
59972;SDS011;55298;-36.624;-64.282;2023-04-03T16:02:50;3.78;;;1.50;;